Time;durP1;ratioP1;P1;durP2;ratioP2;P2;SDS_P1;SDS_P2;PMS_P1;PMS_P2;Temp;Humidity;BMP_temperature;BMP_pressure;BME280_temperature;BME280_humidity;BME280_pressure;Samples;Min_cycle;Max_cycle;Signal;HPM_P1;HPM_P2
2022/05/27 00:01:17;;;;;;;6.90;2.57;;;17.50;98.80;;;;;;4957481;29;20030;-86
2022/05/27 00:03:42;;;;;;;13.30;2.70;;;17.50;99.00;;;;;;4956920;28;20086;-86
2022/05/27 00:06:08;;;;;;;8.75;2.28;;;17.40;99.30;;;;;;4940271;29;20039;-88
2022/05/27 00:08:34;;;;;;;8.63;2.60;;;17.40;99.40;;;;;;4940528;29;20178;-87
2022/05/27 00:11:00;;;;;;;7.50;2.78;;;17.40;99.50;;;;;;4924147;29;20082;-87
2022/05/27 00:13:27;;;;;;;11.13;3.15;;;17.40;99.70;;;;;;4956854;28;20539;-86
2022/05/27 00:15:53;;;;;;;11.85;3.05;;;17.40;99.80;;;;;;4940662;28;20031;-87
2022/05/27 00:18:18;;;;;;;9.68;2.90;;;17.40;99.90;;;;;;4958489;28;20041;-88
2022/05/27 00:20:44;;;;;;;8.00;2.80;;;17.40;99.90;;;;;;4927343;28;20034;-86
2022/05/27 00:23:10;;;;;;;7.03;2.33;;;17.30;99.90;;;;;;4974819;28;20170;-86
2022/05/27 00:25:36;;;;;;;9.35;2.78;;;17.30;99.90;;;;;;4974976;28;20118;-86
2022/05/27 00:28:02;;;;;;;10.48;2.88;;;17.30;99.90;;;;;;4959133;28;20395;-86
2022/05/27 00:30:28;;;;;;;9.32;3.05;;;17.30;99.90;;;;;;4975839;28;20069;-86
2022/05/27 00:32:53;;;;;;;11.23;3.47;;;17.30;99.90;;;;;;4942689;28;20035;-85
2022/05/27 00:35:19;;;;;;;6.88;2.95;;;17.20;99.90;;;;;;4958669;28;20455;-86
2022/05/27 00:37:45;;;;;;;9.90;2.67;;;17.20;99.90;;;;;;4959673;28;20066;-87
2022/05/27 00:40:12;;;;;;;9.80;2.80;;;17.20;99.90;;;;;;4958964;28;20058;-88
2022/05/27 00:42:40;;;;;;;9.48;2.88;;;17.20;99.90;;;;;;4958874;28;20034;-86
2022/05/27 00:45:06;;;;;;;11.52;3.63;;;17.20;99.90;;;;;;4975691;28;20467;-87
2022/05/27 00:47:35;;;;;;;10.15;3.45;;;17.20;99.90;;;;;;4958749;28;20041;-87
2022/05/27 00:50:08;;;;;;;13.93;3.60;;;17.20;99.90;;;;;;4958809;28;20039;-88
2022/05/27 00:52:39;;;;;;;11.60;3.67;;;17.20;99.90;;;;;;4976803;28;20030;-90
2022/05/27 00:55:08;;;;;;;11.50;2.95;;;17.20;99.90;;;;;;4976594;28;20035;-88
2022/05/27 00:57:44;;;;;;;9.82;2.40;;;17.30;99.90;;;;;;4959162;28;20026;-89
2022/05/27 01:00:19;;;;;;;4.68;1.85;;;17.30;99.90;;;;;;4972598;28;20153;-88
2022/05/27 01:02:45;;;;;;;5.63;2.00;;;17.30;99.90;;;;;;4955600;29;20019;-88
2022/05/27 01:05:14;;;;;;;5.60;1.52;;;17.30;99.90;;;;;;4956803;29;20460;-88
2022/05/27 01:07:40;;;;;;;5.00;1.70;;;17.30;99.90;;;;;;4955730;29;20058;-88
2022/05/27 01:10:08;;;;;;;5.43;1.60;;;17.30;99.90;;;;;;4941990;29;20058;-89
2022/05/27 01:12:53;;;;;;;6.97;1.85;;;17.30;99.90;;;;;;4961613;29;20027;-89
2022/05/27 01:15:37;;;;;;;4.95;1.80;;;17.30;99.90;;;;;;4956003;28;20094;-88
2022/05/27 01:18:08;;;;;;;5.80;2.35;;;17.30;99.90;;;;;;4955698;29;20119;-89
2022/05/27 01:20:50;;;;;;;6.22;1.98;;;17.30;99.90;;;;;;4939290;29;20036;-88
2022/05/27 01:23:57;;;;;;;5.43;1.75;;;17.30;99.90;;;;;;4955475;29;20505;-88
2022/05/27 01:27:04;;;;;;;6.68;1.98;;;17.30;99.90;;;;;;4939400;29;20024;-88
2022/05/27 01:29:39;;;;;;;6.07;1.95;;;17.20;99.90;;;;;;4927993;29;20046;-88
2022/05/27 01:32:29;;;;;;;4.72;1.75;;;17.10;99.90;;;;;;4939060;29;20490;-88
2022/05/27 01:35:34;;;;;;;7.18;2.03;;;17.10;99.90;;;;;;4955209;29;20035;-89
2022/05/27 01:38:30;;;;;;;5.47;1.90;;;17.10;99.90;;;;;;4953556;29;20392;-88
2022/05/27 01:41:16;;;;;;;8.13;2.15;;;17.00;99.90;;;;;;4932612;29;20133;-87
2022/05/27 01:43:50;;;;;;;8.07;1.95;;;17.00;99.90;;;;;;4954854;29;20023;-87
2022/05/27 01:46:29;;;;;;;4.50;1.95;;;17.00;99.90;;;;;;4970129;28;20045;-87
2022/05/27 01:49:16;;;;;;;4.65;1.90;;;16.90;99.90;;;;;;4958315;28;20026;-88
2022/05/27 01:51:55;;;;;;;6.25;2.20;;;16.80;99.90;;;;;;4958045;28;20455;-88
2022/05/27 01:54:43;;;;;;;8.55;2.38;;;16.80;99.90;;;;;;4975426;28;20101;-88
2022/05/27 01:57:38;;;;;;;6.15;2.70;;;16.70;99.90;;;;;;4975616;28;20114;-88
2022/05/27 02:00:12;;;;;;;7.47;2.67;;;16.60;99.90;;;;;;4969363;28;20070;-88
2022/05/27 02:02:43;;;;;;;4.72;2.70;;;16.60;99.90;;;;;;4975237;28;20478;-88
2022/05/27 02:05:08;;;;;;;;;;;16.60;99.90;;;;;;4958646;28;20471;-87
2022/05/27 02:07:53;;;;;;;7.22;2.80;;;16.60;99.90;;;;;;4957805;28;19910;-88
2022/05/27 02:10:27;;;;;;;10.05;3.63;;;16.60;99.90;;;;;;4958117;28;20100;-88
2022/05/27 02:13:08;;;;;;;6.75;3.08;;;16.50;99.90;;;;;;4958278;28;20027;-88
2022/05/27 02:15:37;;;;;;;;;;;16.50;99.90;;;;;;4958483;28;20039;-88
2022/05/27 02:18:12;;;;;;;8.35;3.10;;;16.50;99.90;;;;;;4958094;28;19906;-87
2022/05/27 02:20:43;;;;;;;8.02;3.08;;;16.50;99.90;;;;;;4957713;28;20031;-86
2022/05/27 02:23:23;;;;;;;6.75;3.40;;;16.40;99.90;;;;;;4958026;28;20390;-87
2022/05/27 02:25:51;;;;;;;8.50;4.03;;;16.40;99.90;;;;;;4959187;28;20022;-87
2022/05/27 02:28:30;;;;;;;9.98;3.35;;;16.30;99.90;;;;;;4979147;28;20030;-88
2022/05/27 02:31:13;;;;;;;9.20;3.45;;;16.30;99.90;;;;;;4978756;28;20129;-88
2022/05/27 02:37:00;;;;;;;10.95;4.10;;;16.30;99.90;;;;;;4979273;28;20191;-88
2022/05/27 02:39:27;;;;;;;8.73;3.95;;;16.30;99.90;;;;;;4961907;28;20390;-88
2022/05/27 02:41:57;;;;;;;10.57;4.10;;;16.30;99.90;;;;;;4930369;28;20035;-88
2022/05/27 02:44:22;;;;;;;10.13;4.20;;;16.40;99.90;;;;;;4962019;28;20492;-88
2022/05/27 02:46:51;;;;;;;12.15;4.40;;;16.30;99.90;;;;;;4961816;28;20117;-89
2022/05/27 02:49:29;;;;;;;10.10;3.67;;;16.30;99.90;;;;;;4961771;28;20035;-88
2022/05/27 02:52:31;;;;;;;8.35;3.70;;;16.30;99.90;;;;;;4961698;28;20030;-88
2022/05/27 02:55:01;;;;;;;11.13;3.90;;;16.30;99.90;;;;;;4979341;28;20106;-88
2022/05/27 02:57:43;;;;;;;15.73;4.90;;;16.30;99.90;;;;;;4962079;28;20071;-89
2022/05/27 03:00:21;;;;;;;9.38;4.35;;;16.30;99.90;;;;;;4961968;28;20030;-88
2022/05/27 03:02:47;;;;;;;10.63;3.85;;;16.30;99.90;;;;;;4961175;28;20034;-89
2022/05/27 03:05:22;;;;;;;11.80;3.85;;;16.30;99.90;;;;;;4945568;28;20030;-87
2022/05/27 03:08:08;;;;;;;12.88;3.67;;;16.20;99.90;;;;;;4961316;28;20069;-87
2022/05/27 03:10:37;;;;;;;9.73;3.20;;;16.20;99.90;;;;;;4978369;28;20116;-88
2022/05/27 03:13:14;;;;;;;8.68;3.40;;;16.20;99.90;;;;;;4978825;28;20026;-87
2022/05/27 03:16:21;;;;;;;9.02;3.25;;;16.20;99.90;;;;;;4961374;28;20031;-87
2022/05/27 03:19:10;;;;;;;11.45;3.92;;;16.10;99.90;;;;;;4918578;29;20160;-88
2022/05/27 03:21:53;;;;;;;9.02;3.60;;;16.10;99.90;;;;;;4918464;29;20495;-87
2022/05/27 03:24:45;;;;;;;8.52;3.80;;;16.10;99.90;;;;;;4951736;28;20125;-88
2022/05/27 03:27:38;;;;;;;12.00;4.30;;;16.10;99.90;;;;;;4957533;28;20035;-88
2022/05/27 03:30:18;;;;;;;9.32;3.30;;;16.00;99.90;;;;;;4977650;28;20050;-88
2022/05/27 03:32:50;;;;;;;7.95;3.50;;;15.90;99.90;;;;;;4960641;28;20031;-87
2022/05/27 03:35:30;;;;;;;12.73;4.55;;;15.90;99.90;;;;;;4961035;28;20033;-88
2022/05/27 03:38:14;;;;;;;9.23;3.73;;;15.90;99.90;;;;;;4960858;28;20041;-88
2022/05/27 03:40:50;;;;;;;10.10;3.58;;;15.80;99.90;;;;;;4960731;28;20286;-88
2022/05/27 03:43:17;;;;;;;9.40;3.95;;;15.80;99.90;;;;;;4961180;28;20420;-88
2022/05/27 03:45:56;;;;;;;8.15;3.60;;;15.80;99.90;;;;;;4944818;28;20117;-88
2022/05/27 03:48:23;;;;;;;9.25;4.10;;;15.80;99.90;;;;;;4978158;28;20030;-88
2022/05/27 03:50:55;;;;;;;11.57;4.25;;;15.80;99.90;;;;;;4960744;28;20078;-89
2022/05/27 03:53:21;;;;;;;8.60;3.58;;;15.80;99.90;;;;;;4961082;28;20091;-89
2022/05/27 03:55:47;;;;;;;10.82;3.83;;;15.70;99.90;;;;;;4977648;28;20130;-88
2022/05/27 03:58:14;;;;;;;11.18;3.95;;;15.70;99.90;;;;;;4944422;28;20034;-88
2022/05/27 04:00:41;;;;;;;10.63;3.80;;;15.80;99.90;;;;;;4944578;28;20026;-89
2022/05/27 04:03:08;;;;;;;6.50;3.47;;;15.80;99.90;;;;;;4959366;28;20023;-89
2022/05/27 04:05:34;;;;;;;10.50;3.60;;;15.70;99.90;;;;;;4960520;28;20061;-88
2022/05/27 04:07:59;;;;;;;10.00;3.53;;;15.80;99.90;;;;;;4946515;28;20391;-88
2022/05/27 04:10:25;;;;;;;10.55;3.60;;;15.80;99.90;;;;;;4953120;28;20486;-88
2022/05/27 04:12:50;;;;;;;9.15;3.72;;;15.80;99.90;;;;;;4929179;28;20451;-89
2022/05/27 04:15:17;;;;;;;9.20;3.55;;;15.80;99.90;;;;;;4929288;28;20497;-89
2022/05/27 04:17:49;;;;;;;10.30;3.70;;;15.80;99.90;;;;;;4946674;28;20027;-89
2022/05/27 04:20:18;;;;;;;10.82;3.85;;;15.80;99.90;;;;;;4963083;28;20027;-88
2022/05/27 04:22:44;;;;;;;8.52;3.97;;;15.80;99.90;;;;;;4962497;28;20386;-88
2022/05/27 04:25:13;;;;;;;9.18;3.17;;;15.80;99.90;;;;;;4962418;28;20038;-88
2022/05/27 04:27:39;;;;;;;8.20;3.42;;;15.80;99.90;;;;;;4979392;28;20058;-88
2022/05/27 04:30:07;;;;;;;12.25;3.90;;;15.80;99.90;;;;;;4961347;28;20058;-87
2022/05/27 04:32:33;;;;;;;11.93;3.60;;;15.80;99.90;;;;;;4947075;28;20038;-89
2022/05/27 04:34:59;;;;;;;13.18;3.38;;;15.80;99.90;;;;;;4981094;28;20099;-88
2022/05/27 04:37:25;;;;;;;10.63;3.95;;;15.80;99.90;;;;;;4949569;28;20091;-88
2022/05/27 04:39:51;;;;;;;12.02;4.40;;;15.80;99.90;;;;;;4958014;29;20078;-90
2022/05/27 04:42:17;;;;;;;8.32;3.30;;;15.80;99.90;;;;;;4957046;29;20032;-90
2022/05/27 04:44:43;;;;;;;11.15;3.70;;;15.80;99.90;;;;;;4957671;29;20526;-90
2022/05/27 04:47:11;;;;;;;11.43;3.65;;;15.80;99.90;;;;;;4956478;29;20066;-89
2022/05/27 04:49:56;;;;;;;9.85;3.55;;;15.80;99.90;;;;;;4956727;28;20035;-89
2022/05/27 04:52:35;;;;;;;12.82;3.78;;;15.90;99.90;;;;;;4957947;29;20027;-89
2022/05/27 04:55:06;;;;;;;10.95;3.53;;;15.80;99.90;;;;;;4958117;29;20019;-90
2022/05/27 04:57:37;;;;;;;;;;;15.80;99.90;;;;;;4958431;29;20027;-89
2022/05/27 05:00:05;;;;;;;;;;;15.80;99.90;;;;;;4960265;29;19906;-89
2022/05/27 05:02:31;;;;;;;11.90;3.88;;;15.80;99.90;;;;;;4958244;29;19906;-88
2022/05/27 05:04:56;;;;;;;8.65;3.35;;;15.80;99.90;;;;;;4957759;29;20031;-88
2022/05/27 05:07:25;;;;;;;14.10;3.60;;;15.80;99.90;;;;;;4944038;29;20031;-88
2022/05/27 05:09:51;;;;;;;9.73;3.30;;;15.80;99.90;;;;;;4958389;29;20027;-88
2022/05/27 05:12:22;;;;;;;12.07;4.07;;;15.80;99.90;;;;;;4959009;29;20027;-87
2022/05/27 05:14:51;;;;;;;11.40;3.80;;;15.80;99.90;;;;;;4942674;29;20109;-88
2022/05/27 05:17:17;;;;;;;14.18;3.70;;;15.80;99.90;;;;;;4958005;29;20042;-88
2022/05/27 05:19:43;;;;;;;17.63;4.80;;;15.80;99.90;;;;;;4943678;29;20031;-88
2022/05/27 05:22:08;;;;;;;13.85;4.28;;;15.80;99.90;;;;;;4941496;29;20078;-88
2022/05/27 05:24:36;;;;;;;8.98;3.60;;;15.80;99.90;;;;;;4955759;29;20019;-88
2022/05/27 05:27:03;;;;;;;12.45;3.85;;;15.80;99.90;;;;;;4939923;29;20047;-87
2022/05/27 05:29:29;;;;;;;12.90;4.07;;;15.80;99.90;;;;;;4956806;29;20023;-88
2022/05/27 05:31:57;;;;;;;12.15;3.47;;;15.80;99.90;;;;;;4955698;29;20420;-88
2022/05/27 05:34:22;;;;;;;13.55;3.92;;;15.90;99.90;;;;;;4924228;29;20035;-88
2022/05/27 05:36:54;;;;;;;11.25;3.67;;;15.90;99.90;;;;;;4955847;29;20028;-88
2022/05/27 05:39:20;;;;;;;12.85;4.03;;;15.90;99.90;;;;;;4940639;29;20037;-88
2022/05/27 05:41:59;;;;;;;11.70;3.95;;;15.90;99.90;;;;;;4939769;29;20143;-87
2022/05/27 05:44:30;;;;;;;11.63;3.97;;;15.90;99.90;;;;;;4955929;29;20030;-88
2022/05/27 05:46:56;;;;;;;12.43;4.30;;;15.90;99.90;;;;;;4956708;29;20114;-89
2022/05/27 05:49:22;;;;;;;15.82;4.25;;;15.90;99.90;;;;;;4955512;29;20034;-88
2022/05/27 05:51:52;;;;;;;12.68;4.82;;;16.00;99.90;;;;;;4955532;29;20082;-88
2022/05/27 05:54:21;;;;;;;11.02;4.10;;;16.00;99.90;;;;;;4939623;29;20049;-88
2022/05/27 05:56:50;;;;;;;12.80;3.75;;;16.00;99.90;;;;;;4956193;29;20099;-89
2022/05/27 05:59:20;;;;;;;13.27;4.03;;;16.10;99.90;;;;;;4956934;29;20031;-89
2022/05/27 06:01:46;;;;;;;10.77;4.35;;;16.10;99.90;;;;;;4976495;28;20014;-90
2022/05/27 06:04:12;;;;;;;10.80;3.83;;;16.10;99.90;;;;;;4960053;28;20023;-88
2022/05/27 06:06:39;;;;;;;16.10;3.70;;;16.10;99.90;;;;;;4967241;28;20027;-88
2022/05/27 06:09:06;;;;;;;11.88;4.05;;;16.20;99.90;;;;;;4959179;28;20042;-88
2022/05/27 06:11:32;;;;;;;9.98;3.75;;;16.20;99.90;;;;;;4951417;28;20023;-87
2022/05/27 06:13:58;;;;;;;11.75;3.50;;;16.20;99.90;;;;;;4965778;28;20062;-88
2022/05/27 06:16:23;;;;;;;11.77;3.33;;;16.20;99.90;;;;;;4964591;28;20467;-87
2022/05/27 06:18:49;;;;;;;12.85;3.42;;;16.30;99.90;;;;;;4963306;28;20089;-87
2022/05/27 06:21:16;;;;;;;12.88;3.28;;;16.30;99.90;;;;;;4973003;28;20023;-87
2022/05/27 06:23:44;;;;;;;11.90;3.55;;;16.30;99.90;;;;;;4970247;28;20031;-87
2022/05/27 06:26:11;;;;;;;13.52;3.50;;;16.30;99.90;;;;;;4949601;28;20475;-87
2022/05/27 06:34:39;;;;;;;13.07;3.90;;;16.40;99.90;;;;;;4982243;28;20077;-88
2022/05/27 06:37:07;;;;;;;11.02;4.03;;;16.40;99.90;;;;;;4962981;28;20038;-87
2022/05/27 06:39:35;;;;;;;11.52;3.00;;;16.40;99.90;;;;;;4982287;28;20034;-87
2022/05/27 06:42:03;;;;;;;11.68;3.50;;;16.40;99.90;;;;;;4965612;28;20018;-89
2022/05/27 06:44:29;;;;;;;10.75;2.47;;;16.40;99.90;;;;;;4970361;28;20467;-89
2022/05/27 06:47:02;;;;;;;10.02;2.67;;;16.40;99.90;;;;;;4967040;28;20059;-89
2022/05/27 06:49:30;;;;;;;9.77;3.10;;;16.40;99.90;;;;;;4959030;28;20031;-89
2022/05/27 06:51:58;;;;;;;12.13;2.65;;;16.50;99.90;;;;;;4960989;28;20030;-89
2022/05/27 06:54:52;;;;;;;8.65;2.53;;;16.50;99.90;;;;;;4958013;28;20039;-93
2022/05/27 06:57:23;;;;;;;8.38;2.47;;;16.50;99.90;;;;;;4971587;28;20117;-91
2022/05/27 07:02:42;;;;;;;9.52;2.63;;;16.50;99.90;;;;;;5005160;28;20037;-91
2022/05/27 07:05:18;;;;;;;;;;;;;;;;;;;;;
2022/05/27 07:08:07;;;;;;;10.55;2.90;;;16.50;99.90;;;;;;5008485;28;20431;-91
2022/05/27 07:10:35;;;;;;;9.82;3.13;;;16.60;99.90;;;;;;4989687;28;20116;-91
2022/05/27 07:13:12;;;;;;;9.10;2.72;;;16.60;99.90;;;;;;4986729;28;20049;-91
2022/05/27 07:15:44;;;;;;;14.18;3.10;;;16.60;99.90;;;;;;4988514;28;20046;-91
2022/05/27 07:18:09;;;;;;;8.55;2.58;;;16.70;99.90;;;;;;4987642;28;20097;-89
2022/05/27 07:20:45;;;;;;;10.52;2.58;;;16.70;99.90;;;;;;4987201;28;20455;-89
2022/05/27 07:23:21;;;;;;;12.25;2.47;;;16.70;99.90;;;;;;4981426;28;20029;-89
2022/05/27 07:25:49;;;;;;;11.52;2.70;;;16.70;99.90;;;;;;4948326;28;20074;-91
2022/05/27 07:28:23;;;;;;;9.75;2.40;;;16.70;99.90;;;;;;4957632;29;20688;-87
2022/05/27 07:30:48;;;;;;;8.57;2.33;;;16.70;99.90;;;;;;4941192;29;20031;-88
2022/05/27 07:33:14;;;;;;;12.25;3.17;;;16.70;99.90;;;;;;4940934;29;20050;-87
2022/05/27 07:35:40;;;;;;;11.18;2.25;;;16.70;99.90;;;;;;4958065;29;20580;-85
2022/05/27 07:38:06;;;;;;;11.68;2.90;;;16.70;99.90;;;;;;4957190;29;20148;-85
2022/05/27 07:40:31;;;;;;;11.25;2.65;;;16.70;99.90;;;;;;4957574;29;20031;-86
2022/05/27 07:42:57;;;;;;;12.68;2.67;;;16.70;99.90;;;;;;4925138;29;20035;-87
2022/05/27 07:45:27;;;;;;;14.40;3.13;;;16.80;99.90;;;;;;4958294;29;20031;-87
2022/05/27 07:47:53;;;;;;;8.45;2.00;;;16.80;99.90;;;;;;4941571;29;20495;-86
2022/05/27 07:50:20;;;;;;;9.52;2.15;;;16.80;99.90;;;;;;4940978;29;20041;-86
2022/05/27 07:52:46;;;;;;;8.00;2.17;;;16.90;99.90;;;;;;4943244;29;20435;-87
2022/05/27 07:55:13;;;;;;;8.68;2.33;;;16.90;99.90;;;;;;4957797;29;20034;-86
2022/05/27 07:57:44;;;;;;;11.30;2.28;;;17.00;99.90;;;;;;4941152;29;20058;-86
2022/05/27 08:00:16;;;;;;;11.25;2.97;;;17.00;99.90;;;;;;4941511;29;20031;-86
2022/05/27 08:02:41;;;;;;;9.43;2.60;;;17.00;99.90;;;;;;4941844;29;20068;-87
2022/05/27 08:05:14;;;;;;;12.38;2.67;;;17.10;99.90;;;;;;4940708;29;20035;-86
2022/05/27 08:07:40;;;;;;;12.10;2.40;;;17.10;99.90;;;;;;4957736;29;20163;-86
2022/05/27 08:10:06;;;;;;;9.68;2.35;;;17.20;99.90;;;;;;4940058;29;20496;-86
2022/05/27 08:12:32;;;;;;;10.82;2.53;;;17.20;99.90;;;;;;4956087;28;20055;-86
2022/05/27 08:14:58;;;;;;;13.40;2.55;;;17.30;99.90;;;;;;4940194;29;20051;-86
2022/05/27 08:17:24;;;;;;;10.00;2.35;;;17.30;99.90;;;;;;4939991;29;20074;-86
2022/05/27 08:19:49;;;;;;;12.30;2.55;;;17.30;99.90;;;;;;4939929;29;20038;-86
2022/05/27 08:22:15;;;;;;;9.02;2.33;;;17.40;99.90;;;;;;4940495;29;20038;-86
2022/05/27 08:24:44;;;;;;;11.57;2.80;;;17.40;99.90;;;;;;4923947;29;20023;-86
2022/05/27 08:27:10;;;;;;;11.30;2.47;;;17.50;99.90;;;;;;4939656;29;20031;-86
2022/05/27 08:29:35;;;;;;;8.60;2.50;;;17.50;99.90;;;;;;4956934;29;20394;-88
2022/05/27 08:32:03;;;;;;;7.75;2.10;;;17.60;99.90;;;;;;4939895;29;20122;-89
2022/05/27 08:40:01;;;;;;;8.23;2.22;;;17.70;99.90;;;;;;4942323;29;20051;-86
2022/05/27 08:42:54;;;;;;;10.32;2.50;;;17.70;99.90;;;;;;4940387;29;20042;-86
2022/05/27 08:45:27;;;;;;;8.63;2.45;;;17.80;99.90;;;;;;4956383;29;20375;-87
2022/05/27 08:47:57;;;;;;;8.95;2.42;;;17.80;99.80;;;;;;4940349;29;20044;-88
2022/05/27 08:50:37;;;;;;;9.38;2.42;;;17.80;99.40;;;;;;4957652;29;20095;-86
2022/05/27 08:53:12;;;;;;;8.20;1.92;;;17.90;98.70;;;;;;4956798;29;20027;-86
2022/05/27 09:01:33;;;;;;;9.40;2.83;;;18.00;96.80;;;;;;4976309;28;20077;-86
2022/05/27 09:04:23;;;;;;;11.32;2.30;;;18.00;96.30;;;;;;4975997;28;20444;-86
2022/05/27 09:06:52;;;;;;;14.10;2.72;;;18.00;96.30;;;;;;4976288;28;20034;-86
2022/05/27 09:09:30;;;;;;;9.40;2.50;;;18.00;96.30;;;;;;4976031;28;20035;-86
2022/05/27 09:12:25;;;;;;;7.95;2.20;;;18.10;96.30;;;;;;4958250;28;20022;-86
2022/05/27 09:15:02;;;;;;;10.07;3.17;;;18.10;95.60;;;;;;4957844;28;20043;-86
2022/05/27 09:17:44;;;;;;;10.15;2.42;;;18.10;95.00;;;;;;4974934;28;20030;-85
2022/05/27 09:20:33;;;;;;;8.45;2.30;;;18.10;94.40;;;;;;4974998;28;20023;-86
2022/05/27 09:23:18;;;;;;;7.68;1.90;;;18.10;94.20;;;;;;4958056;28;20027;-86
2022/05/27 09:26:08;;;;;;;15.45;2.80;;;18.20;93.80;;;;;;4958878;28;20114;-86
2022/05/27 09:29:04;;;;;;;13.68;2.38;;;18.20;94.10;;;;;;4975134;28;20027;-86
2022/05/27 09:31:44;;;;;;;11.73;2.53;;;18.30;93.80;;;;;;4961568;28;20475;-86
2022/05/27 09:34:12;;;;;;;6.63;1.98;;;18.40;93.80;;;;;;4961066;28;20375;-86
2022/05/27 09:36:46;;;;;;;9.13;3.00;;;18.40;93.20;;;;;;4960911;28;20049;-85
2022/05/27 09:39:15;;;;;;;7.80;2.63;;;18.50;91.30;;;;;;4963331;28;20027;-87
2022/05/27 09:41:51;;;;;;;14.20;2.85;;;18.50;90.80;;;;;;4975682;28;20026;-86
2022/05/27 09:44:38;;;;;;;9.23;2.55;;;18.50;89.00;;;;;;4980055;28;20027;-86
2022/05/27 09:47:04;;;;;;;9.23;2.17;;;18.60;88.70;;;;;;4962216;28;20031;-85
2022/05/27 09:49:31;;;;;;;8.82;2.35;;;18.70;89.70;;;;;;4942301;28;20027;-85
2022/05/27 09:51:57;;;;;;;7.13;2.20;;;18.70;90.40;;;;;;4974858;28;20451;-86
2022/05/27 09:54:47;;;;;;;11.23;2.88;;;18.80;90.70;;;;;;4957800;28;20423;-86
2022/05/27 09:57:16;;;;;;;8.40;2.65;;;18.90;90.00;;;;;;4957389;28;20030;-87
2022/05/27 09:59:49;;;;;;;11.25;3.15;;;18.90;89.50;;;;;;4957725;28;20162;-87
2022/05/27 10:02:19;;;;;;;11.13;2.63;;;18.90;89.20;;;;;;4974595;28;20158;-86
2022/05/27 10:04:55;;;;;;;10.40;2.30;;;18.90;88.30;;;;;;4958228;28;20073;-86
2022/05/27 10:07:43;;;;;;;9.27;2.53;;;19.00;88.30;;;;;;4957465;28;20075;-86
2022/05/27 10:10:21;;;;;;;11.07;2.38;;;19.00;88.30;;;;;;4957206;28;20039;-86
2022/05/27 10:12:47;;;;;;;11.30;2.63;;;19.00;88.40;;;;;;4959088;28;20463;-86
2022/05/27 10:15:23;;;;;;;11.00;2.88;;;19.00;85.10;;;;;;4975163;28;20047;-87
2022/05/27 10:17:49;;;;;;;10.35;2.85;;;19.10;84.30;;;;;;4958200;28;20031;-86
2022/05/27 10:20:27;;;;;;;7.10;2.13;;;19.10;80.20;;;;;;4928033;28;20034;-86
2022/05/27 10:23:05;;;;;;;15.38;3.38;;;19.20;80.20;;;;;;4957317;28;20481;-87
2022/05/27 10:25:41;;;;;;;10.75;2.60;;;19.20;79.60;;;;;;4957358;28;20468;-86
2022/05/27 10:28:09;;;;;;;10.85;2.92;;;19.30;80.40;;;;;;4974510;28;20035;-86
2022/05/27 10:30:38;;;;;;;11.43;3.05;;;19.30;81.20;;;;;;4974708;28;20053;-85
2022/05/27 10:33:36;;;;;;;8.98;2.70;;;19.30;80.90;;;;;;4957231;28;20395;-86
2022/05/27 10:36:02;;;;;;;10.57;2.45;;;19.40;78.40;;;;;;4974721;28;20027;-86
2022/05/27 10:38:50;;;;;;;9.27;2.50;;;19.40;76.40;;;;;;4957538;28;20027;-85
2022/05/27 10:41:34;;;;;;;8.20;2.35;;;19.40;74.30;;;;;;4956885;28;20023;-86
2022/05/27 10:44:15;;;;;;;12.00;2.20;;;19.40;72.20;;;;;;4957234;28;20471;-85
2022/05/27 10:46:55;;;;;;;16.05;4.30;;;19.40;72.50;;;;;;4957310;28;20035;-88
2022/05/27 10:49:35;;;;;;;9.23;2.60;;;19.50;72.40;;;;;;4978853;28;20035;-85
2022/05/27 10:52:15;;;;;;;9.15;2.80;;;19.50;70.70;;;;;;4981272;28;20825;-85
2022/05/27 10:54:51;;;;;;;10.60;2.47;;;19.50;71.90;;;;;;4967782;28;20054;-86
2022/05/27 11:03:23;;;;;;;7.30;2.30;;;19.60;69.70;;;;;;4989931;28;20059;-85
2022/05/27 11:06:03;;;;;;;8.18;2.47;;;19.70;72.00;;;;;;4990423;28;20027;-86
2022/05/27 11:08:31;;;;;;;10.55;2.42;;;19.80;72.80;;;;;;4969995;28;20038;-85
2022/05/27 11:11:16;;;;;;;9.43;2.45;;;19.80;72.40;;;;;;4984179;28;20030;-86
2022/05/27 11:16:54;;;;;;;10.63;2.75;;;19.90;70.90;;;;;;4975362;28;20042;-86
2022/05/27 11:20:07;;;;;;;11.32;2.42;;;19.90;69.50;;;;;;4981371;28;20004;-89
2022/05/27 11:22:48;;;;;;;11.93;2.70;;;20.00;69.60;;;;;;4940781;29;20055;-87
2022/05/27 11:25:21;;;;;;;10.43;2.53;;;20.00;70.20;;;;;;4922595;29;20039;-86
2022/05/27 11:28:17;;;;;;;9.50;2.25;;;20.10;71.20;;;;;;4948233;29;20058;-86
2022/05/27 11:31:07;;;;;;;9.45;2.47;;;20.20;72.30;;;;;;4957481;29;20031;-85
2022/05/27 11:33:47;;;;;;;7.93;2.30;;;20.20;72.80;;;;;;4966212;29;20031;-84
2022/05/27 11:36:39;;;;;;;9.10;2.72;;;20.30;72.90;;;;;;4960673;29;20333;-85
2022/05/27 11:39:34;;;;;;;8.32;2.03;;;20.40;72.40;;;;;;4940828;29;20595;-85
2022/05/27 11:42:10;;;;;;;10.40;2.67;;;20.50;72.00;;;;;;4940695;29;20031;-85
2022/05/27 11:44:48;;;;;;;10.10;2.78;;;20.50;69.60;;;;;;4942161;29;20093;-85
2022/05/27 11:47:42;;;;;;;11.05;2.58;;;20.50;68.00;;;;;;4943070;29;20349;-86
2022/05/27 11:50:26;;;;;;;7.72;2.13;;;20.50;64.90;;;;;;4960081;29;20035;-86
2022/05/27 11:53:22;;;;;;;7.88;2.47;;;20.50;67.20;;;;;;4940428;29;20032;-87
2022/05/27 11:56:13;;;;;;;11.32;2.42;;;20.50;65.80;;;;;;4940794;29;20069;-86
2022/05/27 11:58:50;;;;;;;9.05;2.35;;;20.50;64.40;;;;;;4957396;28;20069;-86
2022/05/27 12:01:35;;;;;;;9.10;2.67;;;20.50;66.00;;;;;;4959625;29;20031;-87
2022/05/27 12:04:21;;;;;;;11.88;2.80;;;20.50;67.90;;;;;;4940576;29;20033;-86
2022/05/27 12:06:57;;;;;;;13.48;2.80;;;20.60;68.40;;;;;;4940912;29;20037;-87
2022/05/27 12:10:15;;;;;;;11.88;2.67;;;20.70;67.80;;;;;;4940648;29;20082;-88
2022/05/27 12:12:55;;;;;;;10.38;2.22;;;20.80;65.70;;;;;;4919010;29;20102;-86
2022/05/27 12:15:46;;;;;;;10.88;2.70;;;20.80;64.90;;;;;;4958045;28;20058;-87
2022/05/27 12:18:34;;;;;;;11.65;3.15;;;20.80;64.70;;;;;;4941681;29;20043;-86
2022/05/27 12:21:03;;;;;;;15.55;2.75;;;20.90;65.40;;;;;;4944685;29;20596;-86
2022/05/27 12:23:30;;;;;;;12.18;2.92;;;20.90;65.90;;;;;;4959074;29;20094;-86
2022/05/27 12:26:00;;;;;;;10.90;2.70;;;20.90;66.90;;;;;;4941929;29;20058;-85
2022/05/27 12:28:38;;;;;;;11.10;2.63;;;20.90;67.60;;;;;;4940743;29;20074;-87
2022/05/27 12:31:06;;;;;;;10.27;2.67;;;20.90;68.30;;;;;;4956841;29;20115;-86
2022/05/27 12:33:36;;;;;;;10.82;2.22;;;21.00;68.40;;;;;;4924534;29;20059;-87
2022/05/27 12:36:18;;;;;;;9.70;2.27;;;21.00;66.50;;;;;;4941341;29;20464;-87
2022/05/27 12:38:49;;;;;;;12.20;2.42;;;21.00;67.20;;;;;;4941215;29;20645;-86
2022/05/27 12:41:38;;;;;;;10.73;2.53;;;21.10;67.00;;;;;;4939852;29;20031;-87
2022/05/27 12:44:24;;;;;;;7.85;2.63;;;21.10;64.70;;;;;;4940127;29;20031;-86
2022/05/27 12:47:01;;;;;;;10.05;2.72;;;21.10;63.80;;;;;;4940211;29;20486;-87
2022/05/27 12:49:37;;;;;;;10.82;2.05;;;21.10;63.50;;;;;;4957852;29;20063;-90
2022/05/27 12:52:07;;;;;;;9.52;2.20;;;21.10;63.70;;;;;;4957275;29;20027;-86
2022/05/27 12:54:48;;;;;;;8.88;2.38;;;21.10;62.00;;;;;;4956792;29;20480;-87
2022/05/27 13:03:40;;;;;;;8.48;2.58;;;21.10;62.70;;;;;;4956606;29;20086;-86
2022/05/27 13:06:17;;;;;;;8.20;2.10;;;21.10;61.80;;;;;;4937916;29;20062;-86
2022/05/27 13:08:47;;;;;;;11.93;2.83;;;21.20;62.30;;;;;;4939042;29;20041;-86
2022/05/27 13:11:37;;;;;;;8.13;2.47;;;21.10;63.10;;;;;;4954789;28;20023;-86
2022/05/27 13:14:08;;;;;;;11.10;2.55;;;21.20;63.30;;;;;;4954370;28;20110;-86
2022/05/27 13:17:01;;;;;;;11.05;2.50;;;21.20;62.40;;;;;;4956237;29;20511;-86
2022/05/27 13:19:30;;;;;;;10.38;2.72;;;21.30;63.40;;;;;;4939175;29;20074;-86
2022/05/27 13:22:03;;;;;;;14.90;2.88;;;21.30;64.10;;;;;;4939109;29;20027;-87
2022/05/27 13:24:34;;;;;;;9.68;2.30;;;21.40;64.50;;;;;;4938952;29;20023;-86
2022/05/27 13:27:13;;;;;;;10.40;2.63;;;21.40;63.10;;;;;;4955162;29;20380;-86
2022/05/27 13:30:06;;;;;;;8.25;2.00;;;21.40;62.50;;;;;;4955279;29;20027;-87
2022/05/27 13:33:02;;;;;;;9.30;1.95;;;21.40;63.20;;;;;;4955031;29;20034;-89
2022/05/27 13:35:48;;;;;;;8.15;2.00;;;21.50;63.90;;;;;;4946007;29;20016;-87
2022/05/27 13:38:28;;;;;;;8.20;2.50;;;21.50;63.80;;;;;;4948190;29;20106;-87
2022/05/27 13:40:54;;;;;;;8.48;2.10;;;21.60;63.40;;;;;;4962762;28;20110;-86
2022/05/27 13:43:26;;;;;;;7.57;2.08;;;21.60;62.60;;;;;;4939217;29;20118;-87
2022/05/27 13:46:17;;;;;;;11.25;2.20;;;21.70;63.20;;;;;;4955900;29;20102;-87
2022/05/27 13:48:53;;;;;;;;;;;21.70;63.30;;;;;;4939932;29;20388;-87
2022/05/27 13:51:24;;;;;;;10.05;2.30;;;21.80;63.80;;;;;;4939311;29;19914;-87
2022/05/27 13:53:51;;;;;;;9.95;3.10;;;21.90;63.50;;;;;;4939584;29;20102;-87
2022/05/27 13:56:23;;;;;;;7.68;2.08;;;21.90;63.00;;;;;;4955568;29;20073;-86
2022/05/27 13:58:51;;;;;;;8.13;2.40;;;21.90;62.50;;;;;;4938455;29;20528;-87